Time;durP1;ratioP1;P1;durP2;ratioP2;P2;SDS_P1;SDS_P2;PMS_P1;PMS_P2;Temp;Humidity;BMP_temperature;BMP_pressure;BME280_temperature;BME280_humidity;BME280_pressure;Samples;Min_cycle;Max_cycle;Signal;HPM_P1;HPM_P2
2023/12/24 00:01:04;;;;;;;2.72;1.23;;;9.00;99.90;;;;;;5033381;28;20036;-88
2023/12/24 00:03:30;;;;;;;2.10;1.02;;;9.00;99.90;;;;;;5034364;28;20117;-89
2023/12/24 00:05:55;;;;;;;4.47;1.63;;;8.90;99.90;;;;;;5031609;28;20028;-88
2023/12/24 00:08:21;;;;;;;3.85;1.05;;;8.90;99.90;;;;;;5029555;28;20159;-88
2023/12/24 00:10:46;;;;;;;5.38;2.00;;;8.90;99.90;;;;;;5027124;28;20615;-84
2023/12/24 00:13:12;;;;;;;4.72;1.33;;;9.00;99.90;;;;;;5026586;28;20773;-84
2023/12/24 00:15:38;;;;;;;7.82;1.70;;;8.90;99.90;;;;;;5024854;28;20040;-83
2023/12/24 00:18:04;;;;;;;4.50;1.38;;;8.90;99.90;;;;;;5026935;28;20470;-84
2023/12/24 00:20:29;;;;;;;3.28;1.67;;;8.90;99.90;;;;;;5029184;28;20123;-84
2023/12/24 00:23:05;;;;;;;4.13;1.40;;;8.80;99.90;;;;;;5026892;28;20039;-84
2023/12/24 00:25:31;;;;;;;3.83;1.27;;;8.80;99.90;;;;;;5044146;28;20064;-83
2023/12/24 00:27:58;;;;;;;4.72;1.08;;;8.90;99.90;;;;;;5025963;28;20068;-84
2023/12/24 00:30:26;;;;;;;8.18;1.40;;;8.80;99.90;;;;;;5028852;28;20113;-83
2023/12/24 00:32:53;;;;;;;4.18;1.45;;;8.80;99.90;;;;;;5032738;28;20036;-83
2023/12/24 00:35:19;;;;;;;5.03;1.63;;;8.90;99.90;;;;;;5034865;28;20107;-83
2023/12/24 00:37:45;;;;;;;5.40;1.42;;;8.80;99.90;;;;;;5042871;28;20106;-83
2023/12/24 00:40:10;;;;;;;7.15;1.50;;;8.90;99.90;;;;;;5033189;28;20396;-83
2023/12/24 00:42:36;;;;;;;6.78;1.45;;;8.90;99.90;;;;;;5031616;28;20036;-83
2023/12/24 00:45:02;;;;;;;4.70;1.50;;;8.90;99.90;;;;;;5033240;28;20036;-83
2023/12/24 00:47:27;;;;;;;6.47;1.60;;;8.90;99.90;;;;;;5030382;28;20389;-83
2023/12/24 00:49:53;;;;;;;4.13;1.30;;;8.90;99.90;;;;;;5046019;28;20040;-83
2023/12/24 00:52:18;;;;;;;7.03;1.45;;;8.90;99.90;;;;;;5031285;28;20038;-84
2023/12/24 00:54:44;;;;;;;8.38;1.50;;;9.00;99.90;;;;;;5032835;28;20041;-83
2023/12/24 00:57:10;;;;;;;4.95;1.35;;;9.00;99.90;;;;;;5029818;28;20036;-83
2023/12/24 00:59:35;;;;;;;9.98;1.27;;;9.00;99.90;;;;;;5030215;28;20067;-83
2023/12/24 01:02:01;;;;;;;4.60;1.45;;;9.00;99.90;;;;;;5032782;28;20081;-83
2023/12/24 01:04:26;;;;;;;10.63;1.27;;;9.00;99.90;;;;;;5031339;28;20499;-83
2023/12/24 01:06:52;;;;;;;1.83;1.15;;;8.90;99.90;;;;;;5030255;28;20713;-84
2023/12/24 01:09:17;;;;;;;4.90;1.48;;;9.00;99.90;;;;;;5029064;28;20540;-83
2023/12/24 01:11:43;;;;;;;3.67;0.98;;;9.10;99.90;;;;;;5036362;28;20036;-83
2023/12/24 01:14:10;;;;;;;5.38;1.50;;;9.10;99.90;;;;;;5042800;28;20033;-83
2023/12/24 01:16:39;;;;;;;7.22;1.60;;;9.10;99.90;;;;;;5028376;28;20082;-83
2023/12/24 01:19:05;;;;;;;9.65;2.13;;;9.10;99.90;;;;;;5026801;28;20032;-83
2023/12/24 01:21:30;;;;;;;2.72;0.95;;;9.10;99.90;;;;;;5032428;28;20481;-83
2023/12/24 01:23:56;;;;;;;8.45;1.98;;;9.10;99.90;;;;;;5031586;28;20048;-83
2023/12/24 01:26:21;;;;;;;5.22;1.67;;;9.10;99.90;;;;;;5028718;28;20032;-83
2023/12/24 01:28:47;;;;;;;5.65;1.73;;;9.10;99.90;;;;;;5044835;28;20520;-84
2023/12/24 01:31:13;;;;;;;1.65;0.82;;;9.10;99.90;;;;;;5041874;28;20155;-83
2023/12/24 01:33:38;;;;;;;1.83;0.63;;;9.10;99.90;;;;;;5028176;28;20506;-83
2023/12/24 01:36:04;;;;;;;3.30;1.00;;;9.10;99.90;;;;;;5033218;28;20401;-83
2023/12/24 01:38:30;;;;;;;6.63;1.70;;;9.10;99.90;;;;;;5047111;28;20035;-84
2023/12/24 01:40:56;;;;;;;5.40;1.40;;;9.10;99.90;;;;;;5031043;28;20597;-84
2023/12/24 01:43:21;;;;;;;3.35;1.05;;;9.10;99.90;;;;;;5025645;28;20032;-84
2023/12/24 01:45:47;;;;;;;3.42;1.02;;;9.10;99.90;;;;;;5037211;28;20028;-84
2023/12/24 01:48:18;;;;;;;5.55;1.67;;;9.10;99.90;;;;;;5022056;28;20486;-84
2023/12/24 01:50:45;;;;;;;4.00;1.48;;;9.10;99.90;;;;;;5013218;28;20517;-84
2023/12/24 01:53:11;;;;;;;4.50;1.35;;;9.20;99.90;;;;;;5034744;28;20037;-84
2023/12/24 01:55:36;;;;;;;2.60;1.15;;;9.10;99.90;;;;;;5024652;28;20025;-83
2023/12/24 01:58:03;;;;;;;3.55;1.42;;;9.00;99.90;;;;;;5031848;28;20063;-83
2023/12/24 02:00:29;;;;;;;4.13;1.58;;;9.00;99.90;;;;;;5029886;28;20960;-84
2023/12/24 02:02:58;;;;;;;2.95;1.35;;;9.00;99.90;;;;;;5044387;28;20037;-84
2023/12/24 02:05:24;;;;;;;4.10;1.27;;;9.00;99.90;;;;;;5042183;28;24608;-84
2023/12/24 02:07:52;;;;;;;4.32;1.73;;;9.00;99.90;;;;;;5023907;28;20032;-84
2023/12/24 02:10:20;;;;;;;2.90;1.17;;;8.90;99.90;;;;;;5026446;28;20049;-84
2023/12/24 02:12:46;;;;;;;3.30;1.38;;;9.10;99.90;;;;;;5029490;28;20028;-84
2023/12/24 02:15:12;;;;;;;4.43;1.15;;;9.00;99.90;;;;;;5028604;28;20039;-84
2023/12/24 02:17:38;;;;;;;3.40;1.08;;;9.10;99.90;;;;;;5042855;28;20036;-84
2023/12/24 02:20:04;;;;;;;4.43;1.00;;;9.00;99.90;;;;;;5029231;28;20474;-84
2023/12/24 02:22:29;;;;;;;4.93;1.45;;;9.00;99.90;;;;;;5030899;28;20047;-83
2023/12/24 02:24:55;;;;;;;8.40;1.38;;;9.20;99.90;;;;;;5025973;28;20040;-84
2023/12/24 02:27:32;;;;;;;2.63;0.73;;;9.20;99.90;;;;;;5029739;28;20406;-84
2023/12/24 02:30:01;;;;;;;3.53;1.10;;;9.10;99.90;;;;;;5042926;28;20466;-84
2023/12/24 02:32:27;;;;;;;1.55;0.55;;;9.10;99.90;;;;;;5028133;28;20031;-84
2023/12/24 02:34:53;;;;;;;3.83;0.63;;;9.10;99.90;;;;;;5025424;28;20036;-84
2023/12/24 02:37:18;;;;;;;3.00;0.80;;;9.10;99.90;;;;;;5025417;28;20033;-84
2023/12/24 02:39:45;;;;;;;1.65;0.30;;;9.10;99.90;;;;;;5027213;28;20037;-83
2023/12/24 02:42:11;;;;;;;2.95;0.70;;;9.20;99.90;;;;;;5031595;28;20404;-84
2023/12/24 02:44:36;;;;;;;2.42;0.50;;;9.20;99.90;;;;;;5043015;28;20041;-84
2023/12/24 02:47:02;;;;;;;4.93;0.82;;;9.10;99.90;;;;;;5044525;28;20035;-84
2023/12/24 02:49:31;;;;;;;2.92;0.52;;;9.20;99.90;;;;;;5029703;28;20047;-84
2023/12/24 02:51:56;;;;;;;6.00;0.55;;;9.20;99.90;;;;;;5027261;28;20498;-85
2023/12/24 02:54:22;;;;;;;1.38;0.55;;;9.10;99.90;;;;;;5027661;28;20069;-84
2023/12/24 02:56:47;;;;;;;3.88;1.13;;;9.10;99.90;;;;;;5041392;28;20031;-84
2023/12/24 02:59:13;;;;;;;1.10;0.50;;;9.10;99.90;;;;;;5015881;28;20549;-84
2023/12/24 03:01:39;;;;;;;2.42;1.00;;;9.00;99.90;;;;;;5041452;28;20033;-83
2023/12/24 03:04:05;;;;;;;0.65;0.50;;;9.00;99.90;;;;;;5043637;28;20028;-83
2023/12/24 03:06:30;;;;;;;2.55;0.93;;;9.00;99.90;;;;;;5030727;28;20104;-83
2023/12/24 03:08:56;;;;;;;3.67;0.73;;;9.10;99.90;;;;;;5028314;28;20028;-83
2023/12/24 03:11:22;;;;;;;1.63;0.75;;;9.00;99.90;;;;;;5024452;28;20032;-83
2023/12/24 03:13:47;;;;;;;4.18;0.90;;;8.90;99.90;;;;;;5029525;28;20028;-83
2023/12/24 03:16:13;;;;;;;1.92;0.57;;;8.90;99.90;;;;;;5027811;28;20039;-83
2023/12/24 03:18:39;;;;;;;4.78;1.38;;;8.90;99.90;;;;;;5028195;28;20028;-83
2023/12/24 03:21:04;;;;;;;3.70;1.25;;;8.90;99.90;;;;;;5028629;28;20440;-82
2023/12/24 03:23:30;;;;;;;1.83;1.20;;;8.90;99.90;;;;;;5030716;28;20145;-83
2023/12/24 03:25:56;;;;;;;1.20;0.95;;;8.90;99.90;;;;;;5028836;28;20101;-84
2023/12/24 03:28:21;;;;;;;3.67;1.88;;;8.90;99.90;;;;;;5023857;28;20505;-84
2023/12/24 03:30:48;;;;;;;4.68;0.75;;;8.80;99.90;;;;;;5029822;28;20567;-84
2023/12/24 03:33:14;;;;;;;0.93;0.57;;;8.90;99.90;;;;;;5030747;28;20020;-84
2023/12/24 03:35:40;;;;;;;1.63;0.60;;;8.90;99.90;;;;;;5038850;28;20109;-84
2023/12/24 03:38:06;;;;;;;1.77;0.70;;;8.80;99.90;;;;;;5026463;28;20070;-83
2023/12/24 03:40:32;;;;;;;4.10;1.02;;;8.90;99.90;;;;;;5031148;28;20672;-83
2023/12/24 03:42:59;;;;;;;1.77;0.60;;;8.80;99.90;;;;;;5030677;28;20123;-83
2023/12/24 03:45:24;;;;;;;3.47;0.70;;;8.90;99.90;;;;;;5027584;28;20040;-83
2023/12/24 03:47:50;;;;;;;1.23;0.47;;;8.90;99.90;;;;;;5031437;28;20028;-83
2023/12/24 03:50:15;;;;;;;0.50;0.50;;;8.90;99.90;;;;;;5039819;28;20120;-84
2023/12/24 03:52:41;;;;;;;2.25;0.50;;;8.90;99.90;;;;;;5019775;28;20080;-83
2023/12/24 03:55:08;;;;;;;0.35;0.30;;;9.00;99.90;;;;;;5042598;28;20121;-84
2023/12/24 03:57:33;;;;;;;0.20;0.20;;;8.90;99.90;;;;;;5013305;28;20039;-84
2023/12/24 03:59:59;;;;;;;1.02;0.50;;;8.90;99.90;;;;;;5040531;28;20035;-84
2023/12/24 04:02:26;;;;;;;0.55;0.50;;;8.90;99.90;;;;;;5039389;28;20111;-84
2023/12/24 04:04:51;;;;;;;0.60;0.50;;;8.90;99.90;;;;;;5033009;28;20444;-84
2023/12/24 04:07:17;;;;;;;0.95;0.40;;;8.90;99.90;;;;;;5030503;28;20087;-84
2023/12/24 04:09:43;;;;;;;0.30;0.30;;;8.90;99.90;;;;;;5039369;28;20043;-84
2023/12/24 04:12:10;;;;;;;0.30;0.30;;;8.90;99.90;;;;;;5008703;28;20136;-84
2023/12/24 04:14:39;;;;;;;0.40;0.40;;;8.90;99.90;;;;;;5016456;28;20035;-84
2023/12/24 04:17:05;;;;;;;4.68;0.73;;;9.00;99.90;;;;;;5041709;28;20055;-84
2023/12/24 04:19:30;;;;;;;0.70;0.30;;;8.90;99.90;;;;;;5037722;28;20029;-84
2023/12/24 04:21:56;;;;;;;0.30;0.30;;;9.00;99.90;;;;;;5020859;28;20185;-84
2023/12/24 04:24:22;;;;;;;1.85;0.20;;;9.00;99.90;;;;;;5023794;28;20515;-89
2023/12/24 04:26:48;;;;;;;0.30;0.30;;;9.10;99.90;;;;;;5041870;28;20033;-88
2023/12/24 04:29:14;;;;;;;1.67;0.55;;;9.10;99.90;;;;;;5033277;28;20044;-88
2023/12/24 04:31:40;;;;;;;0.43;0.38;;;9.10;99.90;;;;;;5031471;28;20074;-88
2023/12/24 04:34:06;;;;;;;0.20;0.20;;;9.00;99.90;;;;;;5034078;28;20028;-88
2023/12/24 04:36:33;;;;;;;3.03;0.40;;;9.10;99.90;;;;;;5033115;28;20520;-90
2023/12/24 04:38:58;;;;;;;0.98;0.57;;;9.00;99.90;;;;;;5043704;28;20097;-89
2023/12/24 04:41:26;;;;;;;2.55;0.30;;;9.00;99.90;;;;;;5029456;28;20032;-89
2023/12/24 04:43:52;;;;;;;0.28;0.25;;;9.20;99.90;;;;;;5028175;28;20024;-89
2023/12/24 04:46:18;;;;;;;0.68;0.40;;;9.10;99.90;;;;;;5042098;28;20085;-88
2023/12/24 04:48:43;;;;;;;0.50;0.40;;;9.10;99.90;;;;;;5022766;28;20032;-89
2023/12/24 04:51:10;;;;;;;0.25;0.13;;;9.10;99.90;;;;;;5047985;28;20029;-89
2023/12/24 04:53:35;;;;;;;0.43;0.13;;;9.10;99.90;;;;;;5058728;28;20047;-90
2023/12/24 04:56:02;;;;;;;0.47;0.30;;;9.10;99.90;;;;;;5029932;28;20032;-89
2023/12/24 04:58:28;;;;;;;0.20;0.10;;;9.10;99.90;;;;;;5044139;28;20079;-88
2023/12/24 05:00:57;;;;;;;1.05;0.40;;;9.20;99.90;;;;;;5030130;28;20512;-90
2023/12/24 05:03:23;;;;;;;2.45;0.30;;;9.10;99.90;;;;;;5046550;28;20048;-89
2023/12/24 05:05:48;;;;;;;0.32;0.30;;;9.10;99.90;;;;;;5031515;28;20043;-88
2023/12/24 05:08:14;;;;;;;1.15;0.25;;;9.20;99.90;;;;;;5032605;28;20394;-90
2023/12/24 05:10:39;;;;;;;1.25;0.40;;;9.20;99.90;;;;;;5027919;28;20044;-89
2023/12/24 05:13:06;;;;;;;0.28;0.28;;;9.10;99.90;;;;;;5034090;28;20032;-90
2023/12/24 05:15:31;;;;;;;0.40;0.22;;;9.20;99.90;;;;;;5031884;28;20032;-90
2023/12/24 05:17:57;;;;;;;0.20;0.20;;;9.10;99.90;;;;;;5046185;28;20086;-88
2023/12/24 05:20:22;;;;;;;0.25;0.20;;;9.20;99.90;;;;;;5028890;28;20127;-89
2023/12/24 05:22:48;;;;;;;0.30;0.30;;;9.10;99.90;;;;;;5031763;28;20029;-90
2023/12/24 05:25:13;;;;;;;0.95;0.30;;;9.10;99.90;;;;;;5035371;28;20062;-89
2023/12/24 05:27:39;;;;;;;0.17;0.17;;;9.20;99.90;;;;;;5048434;28;20077;-88
2023/12/24 05:30:06;;;;;;;0.25;0.20;;;9.20;99.90;;;;;;5033128;28;20482;-88
2023/12/24 05:32:32;;;;;;;0.30;0.20;;;9.10;99.90;;;;;;5035309;28;20473;-89
2023/12/24 05:34:57;;;;;;;0.17;0.10;;;9.30;99.90;;;;;;5049306;28;20031;-90
2023/12/24 05:37:23;;;;;;;0.55;0.13;;;9.10;99.90;;;;;;5034404;28;20665;-90
2023/12/24 05:39:48;;;;;;;0.22;0.13;;;9.20;99.90;;;;;;5033449;28;20123;-89
2023/12/24 05:42:14;;;;;;;0.15;0.10;;;9.20;99.90;;;;;;5046597;28;20036;-89
2023/12/24 05:44:40;;;;;;;0.20;0.20;;;9.20;99.90;;;;;;5030998;28;20039;-89
2023/12/24 05:47:05;;;;;;;0.20;0.20;;;9.20;99.90;;;;;;5032268;28;20040;-90
2023/12/24 05:49:31;;;;;;;0.70;0.30;;;9.30;99.90;;;;;;5031174;28;20035;-91
2023/12/24 05:51:56;;;;;;;0.25;0.20;;;9.20;99.90;;;;;;5033750;28;20519;-91
2023/12/24 05:54:22;;;;;;;0.28;0.28;;;9.20;99.90;;;;;;5046646;28;20531;-90
2023/12/24 05:56:47;;;;;;;0.10;0.10;;;9.20;99.90;;;;;;5044680;28;20038;-90
2023/12/24 05:59:13;;;;;;;0.30;0.30;;;9.20;99.90;;;;;;5034787;28;20111;-89
2023/12/24 06:01:39;;;;;;;0.40;0.30;;;9.20;99.90;;;;;;5029779;28;20035;-89
2023/12/24 06:04:05;;;;;;;0.30;0.30;;;9.10;99.90;;;;;;5047181;28;20042;-89
2023/12/24 06:06:30;;;;;;;0.22;0.22;;;9.20;99.90;;;;;;5034269;28;20028;-91
2023/12/24 06:08:56;;;;;;;0.40;0.40;;;9.10;99.90;;;;;;5048180;28;20381;-89
2023/12/24 06:11:22;;;;;;;0.40;0.40;;;9.20;99.90;;;;;;5044839;28;20020;-89
2023/12/24 06:13:47;;;;;;;0.43;0.30;;;9.30;99.90;;;;;;5044467;28;20123;-90
2023/12/24 06:16:13;;;;;;;0.70;0.50;;;9.20;99.90;;;;;;5030369;28;20163;-89
2023/12/24 06:18:40;;;;;;;1.00;0.40;;;9.20;99.90;;;;;;5039142;28;20025;-90
2023/12/24 06:21:06;;;;;;;0.60;0.30;;;9.20;99.90;;;;;;5048031;28;20042;-91
2023/12/24 06:23:34;;;;;;;0.30;0.30;;;9.20;99.90;;;;;;5030972;28;20032;-89
2023/12/24 06:26:00;;;;;;;0.20;0.20;;;9.30;99.90;;;;;;5031744;28;20047;-89
2023/12/24 06:28:25;;;;;;;0.38;0.38;;;9.20;99.90;;;;;;5030341;28;20028;-89
2023/12/24 06:30:51;;;;;;;0.40;0.28;;;9.20;99.90;;;;;;5034466;28;20493;-89
2023/12/24 06:33:16;;;;;;;0.20;0.20;;;9.20;99.90;;;;;;5032195;28;20032;-89
2023/12/24 06:35:44;;;;;;;0.50;0.50;;;9.20;99.90;;;;;;5044323;28;20508;-89
2023/12/24 06:38:10;;;;;;;0.40;0.40;;;9.30;99.90;;;;;;5030512;28;20029;-86
2023/12/24 06:40:35;;;;;;;0.35;0.25;;;9.20;99.90;;;;;;5031243;28;20040;-89
2023/12/24 06:43:01;;;;;;;0.50;0.50;;;9.20;99.90;;;;;;5032581;28;20036;-89
2023/12/24 06:45:26;;;;;;;1.88;0.40;;;9.20;99.90;;;;;;5047652;28;20040;-89
2023/12/24 06:47:52;;;;;;;0.25;0.20;;;9.20;99.90;;;;;;5032274;28;20043;-88
2023/12/24 06:50:19;;;;;;;0.63;0.50;;;9.20;99.90;;;;;;5030602;28;20043;-90
2023/12/24 06:52:45;;;;;;;0.40;0.40;;;9.20;99.90;;;;;;5033689;28;20024;-89
2023/12/24 06:55:12;;;;;;;1.40;0.80;;;9.20;99.90;;;;;;5031575;28;20024;-86
2023/12/24 06:57:37;;;;;;;0.50;0.30;;;9.20;99.90;;;;;;5033635;28;20024;-88
2023/12/24 07:00:05;;;;;;;1.05;0.60;;;9.40;99.90;;;;;;5044440;28;20030;-91
2023/12/24 07:02:31;;;;;;;0.50;0.40;;;9.30;99.90;;;;;;5032231;28;20521;-89
2023/12/24 07:04:57;;;;;;;0.45;0.45;;;9.30;99.90;;;;;;5032750;28;20111;-87
2023/12/24 07:07:22;;;;;;;0.50;0.50;;;9.30;99.90;;;;;;5032628;28;20194;-89
2023/12/24 07:09:48;;;;;;;0.85;0.45;;;9.30;99.90;;;;;;5047400;28;20078;-89
2023/12/24 07:12:14;;;;;;;0.50;0.50;;;9.30;99.90;;;;;;5034127;28;20038;-88
2023/12/24 07:14:39;;;;;;;0.32;0.32;;;9.30;99.90;;;;;;5033992;28;20040;-89
2023/12/24 07:17:05;;;;;;;0.75;0.52;;;9.30;99.90;;;;;;5027280;28;20063;-89
2023/12/24 07:19:32;;;;;;;0.50;0.40;;;9.30;99.90;;;;;;5029762;28;20047;-90
2023/12/24 07:21:58;;;;;;;0.43;0.43;;;9.30;99.90;;;;;;5033357;28;20389;-89
2023/12/24 07:24:23;;;;;;;2.08;0.57;;;9.30;99.90;;;;;;5029032;28;20036;-90
2023/12/24 07:26:49;;;;;;;1.30;0.57;;;9.30;99.90;;;;;;5028197;28;20385;-90
2023/12/24 07:29:14;;;;;;;0.50;0.20;;;9.40;99.90;;;;;;5033115;28;20021;-89
2023/12/24 07:31:40;;;;;;;1.05;0.50;;;9.50;99.90;;;;;;5030031;28;20073;-90
2023/12/24 07:34:06;;;;;;;0.40;0.40;;;9.30;99.90;;;;;;5035464;28;20051;-88
2023/12/24 07:36:31;;;;;;;1.65;0.50;;;9.40;99.90;;;;;;5033562;28;20315;-89
2023/12/24 07:38:57;;;;;;;0.55;0.47;;;9.40;99.90;;;;;;5028100;28;20025;-89
2023/12/24 07:41:26;;;;;;;0.40;0.40;;;9.30;99.90;;;;;;5044902;28;20777;-89
2023/12/24 07:43:53;;;;;;;0.40;0.40;;;9.40;99.90;;;;;;5030786;28;20050;-89
2023/12/24 07:46:18;;;;;;;1.13;0.75;;;9.40;99.90;;;;;;5041974;28;20498;-90
2023/12/24 07:48:44;;;;;;;0.30;0.22;;;9.40;99.90;;;;;;5031476;28;20024;-88
2023/12/24 07:51:09;;;;;;;2.80;0.52;;;9.40;99.90;;;;;;5032120;28;20028;-87
2023/12/24 07:53:36;;;;;;;0.20;0.20;;;9.40;99.90;;;;;;5028891;28;20099;-89
2023/12/24 07:56:02;;;;;;;0.65;0.40;;;9.40;99.90;;;;;;5030770;28;20037;-90
2023/12/24 07:58:27;;;;;;;0.50;0.50;;;9.40;99.90;;;;;;5016023;28;20127;-87
2023/12/24 08:00:53;;;;;;;0.77;0.47;;;9.40;99.90;;;;;;5014648;28;20072;-88
2023/12/24 08:03:18;;;;;;;0.32;0.30;;;9.40;99.90;;;;;;5030384;28;20025;-88
2023/12/24 08:05:44;;;;;;;0.30;0.28;;;9.50;99.90;;;;;;5031223;28;20602;-86
2023/12/24 08:08:10;;;;;;;0.30;0.30;;;9.40;99.90;;;;;;5016827;28;20032;-88
2023/12/24 08:10:35;;;;;;;0.38;0.38;;;9.50;99.90;;;;;;5045199;28;20060;-88
2023/12/24 08:13:02;;;;;;;0.50;0.30;;;9.50;99.90;;;;;;5016909;28;20133;-87
2023/12/24 08:15:27;;;;;;;0.38;0.38;;;9.50;99.90;;;;;;5033417;28;20449;-89
2023/12/24 08:17:53;;;;;;;0.73;0.50;;;9.50;99.90;;;;;;5048233;28;20048;-88
2023/12/24 08:20:21;;;;;;;0.50;0.40;;;9.50;99.90;;;;;;5027177;28;20035;-88
2023/12/24 08:22:48;;;;;;;1.02;0.47;;;9.50;99.90;;;;;;5026418;28;20032;-86
2023/12/24 08:25:14;;;;;;;5.18;0.50;;;9.60;99.90;;;;;;5042237;28;20319;-87
2023/12/24 08:27:39;;;;;;;0.82;0.40;;;9.50;99.90;;;;;;5029576;28;20040;-87
2023/12/24 08:30:05;;;;;;;2.60;0.50;;;9.50;99.90;;;;;;5030034;28;20046;-88
2023/12/24 08:32:31;;;;;;;0.30;0.30;;;9.50;99.90;;;;;;5029709;28;20567;-89
2023/12/24 08:34:57;;;;;;;0.40;0.30;;;9.50;99.90;;;;;;5030104;28;20028;-89
2023/12/24 08:37:22;;;;;;;0.40;0.40;;;9.60;99.90;;;;;;5027912;28;20041;-87
2023/12/24 08:39:48;;;;;;;1.40;0.40;;;9.50;99.90;;;;;;5027382;28;20033;-87
2023/12/24 08:42:13;;;;;;;0.75;0.40;;;9.60;99.90;;;;;;5029087;28;20033;-87
2023/12/24 08:44:39;;;;;;;0.40;0.40;;;9.60;99.90;;;;;;5027276;28;20040;-87
2023/12/24 08:47:05;;;;;;;0.35;0.35;;;9.60;99.90;;;;;;5029685;28;20508;-88
2023/12/24 08:49:31;;;;;;;0.40;0.30;;;9.60;99.90;;;;;;5024653;28;20051;-84
2023/12/24 08:51:56;;;;;;;0.28;0.20;;;9.60;99.90;;;;;;5027432;28;20490;-83
2023/12/24 08:54:24;;;;;;;0.40;0.40;;;9.60;99.90;;;;;;5027183;28;20036;-83
2023/12/24 08:56:49;;;;;;;0.30;0.30;;;9.60;99.90;;;;;;5047895;28;20493;-84
2023/12/24 08:59:15;;;;;;;0.63;0.40;;;9.60;99.90;;;;;;5033967;28;20024;-84
2023/12/24 09:01:42;;;;;;;0.40;0.40;;;9.60;99.90;;;;;;5032553;28;20620;-85
2023/12/24 09:04:07;;;;;;;0.90;0.22;;;9.60;99.90;;;;;;5033854;28;20104;-84
2023/12/24 09:06:33;;;;;;;0.70;0.60;;;9.60;99.90;;;;;;5033192;28;20763;-83
2023/12/24 09:08:59;;;;;;;0.30;0.30;;;9.70;99.90;;;;;;5032017;28;20016;-84
2023/12/24 09:11:26;;;;;;;0.50;0.40;;;9.60;99.90;;;;;;5028170;28;20470;-84
2023/12/24 09:13:52;;;;;;;0.28;0.20;;;9.70;99.90;;;;;;5033803;28;20041;-83
2023/12/24 09:16:18;;;;;;;0.13;0.13;;;9.70;99.90;;;;;;5044566;28;20040;-84
2023/12/24 09:18:43;;;;;;;0.65;0.50;;;9.70;99.90;;;;;;5017631;28;20143;-84
2023/12/24 09:21:09;;;;;;;0.32;0.20;;;9.70;99.90;;;;;;5005145;28;20055;-84
2023/12/24 09:23:35;;;;;;;0.35;0.28;;;9.70;99.90;;;;;;5046542;28;20024;-82
2023/12/24 09:26:00;;;;;;;0.20;0.20;;;9.70;99.90;;;;;;5030376;28;20400;-82
2023/12/24 09:28:26;;;;;;;0.28;0.28;;;9.70;99.90;;;;;;5027734;28;20043;-82
2023/12/24 09:30:51;;;;;;;0.30;0.20;;;9.70;99.90;;;;;;5033755;28;20028;-85
2023/12/24 09:33:17;;;;;;;0.52;0.20;;;9.70;99.90;;;;;;5031310;28;20098;-82
2023/12/24 09:35:43;;;;;;;0.20;0.20;;;9.60;99.90;;;;;;5030802;28;20039;-81
2023/12/24 09:38:10;;;;;;;0.30;0.22;;;9.70;99.90;;;;;;5031455;28;20124;-82
2023/12/24 09:40:35;;;;;;;0.20;0.20;;;9.70;99.90;;;;;;5029807;28;20576;-82
2023/12/24 09:43:01;;;;;;;0.90;0.35;;;9.70;99.90;;;;;;5029020;28;20074;-82
2023/12/24 09:45:26;;;;;;;1.13;0.45;;;9.80;99.90;;;;;;5040555;28;20044;-81
2023/12/24 09:47:52;;;;;;;3.53;0.40;;;9.80;99.90;;;;;;5047316;28;20028;-80
2023/12/24 09:50:18;;;;;;;0.20;0.20;;;9.80;99.90;;;;;;5029877;28;20039;-80
2023/12/24 09:52:45;;;;;;;0.40;0.38;;;9.80;99.90;;;;;;5046609;28;20043;-80
2023/12/24 09:55:10;;;;;;;0.40;0.30;;;9.80;99.90;;;;;;5029810;28;20416;-80
2023/12/24 09:57:36;;;;;;;0.47;0.28;;;9.80;99.90;;;;;;5025026;28;20036;-80
2023/12/24 10:00:02;;;;;;;0.73;0.70;;;9.80;99.90;;;;;;5029528;28;20032;-80
2023/12/24 10:02:27;;;;;;;0.40;0.40;;;9.80;99.90;;;;;;5030571;28;20040;-80
2023/12/24 10:04:54;;;;;;;0.35;0.30;;;9.80;99.90;;;;;;5030449;28;20476;-80
2023/12/24 10:07:19;;;;;;;0.32;0.30;;;9.90;99.90;;;;;;5027235;28;20037;-80
2023/12/24 10:09:49;;;;;;;0.50;0.47;;;9.80;99.90;;;;;;5027750;28;20043;-80
2023/12/24 10:12:14;;;;;;;0.77;0.45;;;9.80;99.90;;;;;;5028514;28;20079;-80
2023/12/24 10:14:41;;;;;;;0.30;0.30;;;9.80;99.90;;;;;;5030386;28;20559;-80
2023/12/24 10:17:07;;;;;;;0.35;0.20;;;9.80;99.90;;;;;;5026166;28;20600;-86
2023/12/24 10:19:34;;;;;;;1.20;0.30;;;9.90;99.90;;;;;;5032166;28;20545;-87
2023/12/24 10:22:06;;;;;;;0.30;0.30;;;9.90;99.90;;;;;;5010420;28;20115;-87
2023/12/24 10:24:34;;;;;;;0.98;0.50;;;9.90;99.90;;;;;;5048285;28;20091;-86
2023/12/24 10:27:14;;;;;;;0.68;0.50;;;9.90;99.90;;;;;;5030016;28;20094;-88
2023/12/24 10:29:43;;;;;;;1.40;0.30;;;9.90;99.90;;;;;;5022064;28;20041;-85
2023/12/24 10:32:12;;;;;;;0.50;0.50;;;10.00;99.90;;;;;;5033644;28;20036;-87
2023/12/24 10:34:39;;;;;;;0.60;0.45;;;10.00;99.90;;;;;;5044248;28;20037;-87
2023/12/24 10:37:17;;;;;;;1.58;0.50;;;10.10;99.90;;;;;;5029470;28;20024;-87
2023/12/24 10:39:43;;;;;;;0.20;0.20;;;10.00;99.90;;;;;;5033709;28;20059;-88
2023/12/24 10:42:09;;;;;;;0.38;0.32;;;10.00;99.90;;;;;;5028475;28;20025;-87
2023/12/24 10:44:34;;;;;;;0.70;0.70;;;10.00;99.90;;;;;;5045019;28;20049;-87
2023/12/24 10:47:03;;;;;;;0.43;0.43;;;9.90;99.90;;;;;;5030201;28;20043;-87
2023/12/24 10:49:29;;;;;;;1.40;0.82;;;10.00;99.90;;;;;;5031778;28;20032;-84
2023/12/24 10:51:56;;;;;;;0.50;0.50;;;10.00;99.90;;;;;;5058138;28;20045;-87
2023/12/24 10:54:21;;;;;;;0.50;0.50;;;10.10;99.90;;;;;;5041038;28;20075;-85
2023/12/24 10:57:00;;;;;;;0.80;0.80;;;10.00;99.90;;;;;;5028838;28;20078;-89
2023/12/24 10:59:41;;;;;;;0.50;0.50;;;10.10;99.90;;;;;;5031404;28;20456;-88
2023/12/24 11:02:11;;;;;;;1.40;0.75;;;10.10;99.90;;;;;;5049864;28;20028;-91
2023/12/24 11:04:44;;;;;;;0.80;0.80;;;10.20;99.90;;;;;;5029831;28;20028;-89
2023/12/24 11:07:29;;;;;;;1.05;0.60;;;10.10;99.90;;;;;;5046642;28;20086;-86
2023/12/24 11:09:54;;;;;;;0.50;0.50;;;10.10;99.90;;;;;;5041213;28;20063;-86
2023/12/24 11:12:30;;;;;;;1.58;0.47;;;10.20;99.90;;;;;;5032413;28;20037;-87
2023/12/24 11:14:57;;;;;;;0.75;0.50;;;10.20;99.90;;;;;;5044121;28;20035;-86
2023/12/24 11:17:38;;;;;;;4.38;0.30;;;10.20;99.90;;;;;;5025524;28;20043;-87
2023/12/24 11:20:24;;;;;;;0.98;0.60;;;10.20;99.90;;;;;;5062891;28;20440;-87
2023/12/24 11:23:04;;;;;;;0.82;0.60;;;10.20;99.90;;;;;;5065495;28;20731;-86
2023/12/24 11:25:40;;;;;;;0.68;0.52;;;10.20;99.90;;;;;;5058463;28;20036;-82
2023/12/24 11:28:29;;;;;;;0.40;0.40;;;10.20;99.90;;;;;;5058059;28;20033;-82
2023/12/24 11:31:01;;;;;;;0.60;0.32;;;10.20;99.90;;;;;;5030910;28;20043;-83
2023/12/24 11:33:29;;;;;;;0.77;0.57;;;10.20;99.90;;;;;;5062911;28;20036;-82
2023/12/24 11:36:01;;;;;;;0.25;0.22;;;10.20;99.90;;;;;;5043166;28;20537;-82
2023/12/24 11:38:36;;;;;;;3.30;0.75;;;10.20;99.90;;;;;;5026502;28;20040;-83
2023/12/24 11:41:10;;;;;;;1.48;0.40;;;10.40;99.90;;;;;;5064757;28;20111;-83
2023/12/24 11:43:36;;;;;;;2.22;0.50;;;10.20;99.90;;;;;;5064915;28;20115;-83
2023/12/24 11:46:02;;;;;;;1.70;0.43;;;10.20;99.90;;;;;;5027371;28;20035;-82
2023/12/24 11:48:29;;;;;;;2.33;0.95;;;10.20;99.90;;;;;;5033233;28;20131;-82
2023/12/24 11:51:12;;;;;;;1.67;0.85;;;10.30;99.90;;;;;;5028420;28;20685;-82
2023/12/24 11:53:39;;;;;;;3.05;1.00;;;10.30;99.90;;;;;;5037990;28;20066;-83
2023/12/24 11:56:17;;;;;;;1.80;0.77;;;10.30;99.90;;;;;;5028559;28;20067;-82
2023/12/24 11:58:57;;;;;;;2.85;0.85;;;10.30;99.90;;;;;;5028623;28;20147;-82
2023/12/24 12:01:26;;;;;;;2.15;1.05;;;10.30;99.90;;;;;;5029526;28;20045;-82
2023/12/24 12:03:59;;;;;;;5.63;0.88;;;10.30;99.90;;;;;;5043548;28;20131;-82
2023/12/24 12:06:28;;;;;;;3.10;0.95;;;10.30;99.90;;;;;;5030246;28;20457;-82
2023/12/24 12:08:54;;;;;;;1.77;1.00;;;10.30;99.90;;;;;;5028978;28;20032;-82
2023/12/24 12:11:20;;;;;;;3.65;1.58;;;10.40;99.90;;;;;;5029743;28;20039;-82
2023/12/24 12:13:46;;;;;;;5.03;1.25;;;10.40;99.90;;;;;;5024616;28;20437;-82
2023/12/24 12:16:11;;;;;;;1.70;1.10;;;10.40;99.90;;;;;;5024052;28;20409;-83
2023/12/24 12:18:38;;;;;;;2.75;1.90;;;10.40;99.90;;;;;;5027088;28;20039;-82
2023/12/24 12:21:04;;;;;;;1.23;1.13;;;10.30;99.90;;;;;;5035719;28;20058;-82
2023/12/24 12:23:30;;;;;;;1.70;1.50;;;10.40;99.90;;;;;;5025815;28;20493;-83
2023/12/24 12:25:56;;;;;;;5.25;1.33;;;10.40;99.90;;;;;;5023970;28;20115;-81
2023/12/24 12:28:22;;;;;;;2.15;1.63;;;10.40;99.90;;;;;;5029094;28;20036;-81
2023/12/24 12:30:48;;;;;;;3.35;2.63;;;10.40;99.90;;;;;;5022815;28;20397;-82
2023/12/24 12:33:14;;;;;;;1.33;1.10;;;10.40;99.90;;;;;;5028121;28;20033;-82
2023/12/24 12:35:39;;;;;;;3.33;1.60;;;10.40;99.90;;;;;;5040872;28;20514;-84
2023/12/24 12:38:05;;;;;;;2.95;1.95;;;10.40;99.90;;;;;;5026763;28;20043;-82
2023/12/24 12:40:31;;;;;;;2.65;1.40;;;10.40;99.90;;;;;;5029283;28;20040;-82
2023/12/24 12:42:56;;;;;;;2.08;1.70;;;10.40;99.90;;;;;;5026540;28;20044;-82
2023/12/24 12:45:24;;;;;;;6.75;1.80;;;10.40;99.90;;;;;;5042974;28;20062;-82
2023/12/24 12:47:49;;;;;;;2.42;2.05;;;10.40;99.90;;;;;;5023653;28;20032;-82
2023/12/24 12:50:15;;;;;;;3.35;1.63;;;10.60;99.90;;;;;;5025886;28;20032;-82
2023/12/24 12:52:41;;;;;;;3.72;1.75;;;10.50;99.90;;;;;;5032562;28;20039;-83